Portada
METAR-TAF:

METAR-TAF

Aeroports :

Koror, Babeldaob, Palau

latitud: 07-22N, longitud: 134-32E, altitud: 54 m

Observació

L'informe es va fer fa 1 hora i 6 minuts, a les 11:50 UTC
Vent 10 kt del Est/Nord-Est
Temperatura 25°C
Humitat 94%
Pressió 1009 hPa
Visibilitat: 16.1 km
Cel cobert a una alçada de 1500 ft, Cumulonimbus.
xàfecs de pluja

METAR: PTRO 141150Z 07010KT 10SM -SHRA OVC015CB 25/24 A2980 RMK CB ALQDS AND OHD

Hora: 21:56 (12:56 UTC)

Pronòstic

L'informe es va fer fa 1 hora i 33 minuts, a les 11:23 UTC
Pronòstic vàlid del 14 a les 12 UTC al 15 a les 12 UTC
Vent 15 kt del Est
Visibilitat: 10 km
Cel ennuvolat a una alçada de 1500 ft
Cel ennuvolat a una alçada de 12000 ft
xàfecs en les proximitats
Temporalment
l' 14 a les 12 UTC al 14 a les 16 UTC
Vent 15 kt del Est amb ràfegues de 24 kt
Visibilitat: 4.8 km
Cel cobert a una alçada de 1500 ft
xàfecs de pluja

TAF: PTRO 141123Z 1412/1512 08015KT P6SM VCSH BKN015 BKN120 TEMPO 1412/1416 08015G24KT 3SM SHRA OVC015

Observacions i pronòstics meteorològics de més de 4000 aeroports (METAR i TAF).

Les estacions disponibles són els punts grocs i vermells al mapa.

Posi el ratolí al punt desitjat per veure el nom de l'estació.

Feu clic per veure les observacions i els pronòstics meteorològics.

Per canviar el mapa: feu clic els botons verds amb una creu de color negre per apropar; al botó verd amb un guió per allunyar la imatge; o en les fletxes verdes per a mapes adjacents.


METAR-TAF: